Time;durP1;ratioP1;P1;durP2;ratioP2;P2;SDS_P1;SDS_P2;PMS_P1;PMS_P2;Temp;Humidity;BMP_temperature;BMP_pressure;BME280_temperature;BME280_humidity;BME280_pressure;Samples;Min_cycle;Max_cycle;Signal;HPM_P1;HPM_P2
2023/12/15 00:01:07;;;;;;;11.25;6.97;;;;;;;;;;10264178;28;20051;-74
2023/12/15 00:06:11;;;;;;;9.63;6.93;;;;;;;;;;10267336;28;20058;-74
2023/12/15 00:11:14;;;;;;;10.77;6.88;;;;;;;;;;10282910;28;20447;-74
2023/12/15 00:16:18;;;;;;;11.07;7.18;;;;;;;;;;10277673;28;20115;-75
2023/12/15 00:21:23;;;;;;;11.68;7.20;;;;;;;;;;10270246;28;20527;-74
2023/12/15 00:26:26;;;;;;;10.67;7.40;;;;;;;;;;10273924;28;20188;-74
2023/12/15 00:31:30;;;;;;;11.93;7.20;;;;;;;;;;10268324;28;20049;-74
2023/12/15 00:36:34;;;;;;;9.55;7.10;;;;;;;;;;10282084;28;20063;-74
2023/12/15 00:41:38;;;;;;;11.60;8.00;;;;;;;;;;10274774;28;20136;-74
2023/12/15 00:46:41;;;;;;;11.30;7.63;;;;;;;;;;10271190;28;20635;-74
2023/12/15 00:51:45;;;;;;;11.73;7.15;;;;;;;;;;10273404;28;20069;-74
2023/12/15 00:56:49;;;;;;;10.55;6.82;;;;;;;;;;10280021;28;20492;-74
2023/12/15 01:01:52;;;;;;;9.48;6.22;;;;;;;;;;10271143;28;20054;-74
2023/12/15 01:06:57;;;;;;;10.38;6.90;;;;;;;;;;10277188;28;20591;-74
2023/12/15 01:12:00;;;;;;;10.45;7.38;;;;;;;;;;10274310;28;20508;-74
2023/12/15 01:17:04;;;;;;;11.05;6.93;;;;;;;;;;10275906;28;20039;-75
2023/12/15 01:22:08;;;;;;;9.93;6.50;;;;;;;;;;10270243;28;20507;-74
2023/12/15 01:27:12;;;;;;;9.10;6.10;;;;;;;;;;10274902;28;20657;-74
2023/12/15 01:32:15;;;;;;;9.57;6.28;;;;;;;;;;10266216;28;20420;-75
2023/12/15 01:37:20;;;;;;;9.60;6.57;;;;;;;;;;10264965;28;20125;-74
2023/12/15 01:42:26;;;;;;;9.98;6.72;;;;;;;;;;10278674;28;20041;-74
2023/12/15 01:47:29;;;;;;;9.95;6.55;;;;;;;;;;10273265;28;20113;-75
2023/12/15 01:52:34;;;;;;;10.00;6.43;;;;;;;;;;10275477;28;20054;-75
2023/12/15 01:57:37;;;;;;;9.85;6.18;;;;;;;;;;10264356;28;20069;-74
2023/12/15 02:02:40;;;;;;;9.95;6.55;;;;;;;;;;10263622;28;20043;-74
2023/12/15 02:07:45;;;;;;;9.68;5.88;;;;;;;;;;10276939;28;20043;-74
2023/12/15 02:12:48;;;;;;;10.52;7.10;;;;;;;;;;10277179;28;20107;-75
2023/12/15 02:17:51;;;;;;;10.75;6.32;;;;;;;;;;10282702;28;20507;-74
2023/12/15 02:22:57;;;;;;;9.27;6.10;;;;;;;;;;10282917;28;20561;-75
2023/12/15 02:28:00;;;;;;;10.20;6.20;;;;;;;;;;10270428;28;20051;-74
2023/12/15 02:33:04;;;;;;;8.20;5.40;;;;;;;;;;10264863;28;20050;-74
2023/12/15 02:38:08;;;;;;;8.07;5.10;;;;;;;;;;10260630;28;20070;-74
2023/12/15 02:43:12;;;;;;;7.15;4.85;;;;;;;;;;10265218;28;20121;-74
2023/12/15 02:48:16;;;;;;;7.13;4.57;;;;;;;;;;10258333;28;20034;-74
2023/12/15 02:53:21;;;;;;;5.00;4.20;;;;;;;;;;10263840;28;20051;-74
2023/12/15 02:58:24;;;;;;;6.35;4.47;;;;;;;;;;10258480;28;20449;-75
2023/12/15 03:03:27;;;;;;;6.05;4.03;;;;;;;;;;10267409;28;20058;-74
2023/12/15 03:08:32;;;;;;;7.40;5.00;;;;;;;;;;10263353;28;20070;-74
2023/12/15 03:13:38;;;;;;;6.28;4.53;;;;;;;;;;10268958;28;20041;-74
2023/12/15 03:18:41;;;;;;;6.20;4.68;;;;;;;;;;10269544;28;20043;-74
2023/12/15 03:23:46;;;;;;;6.43;4.55;;;;;;;;;;10276637;28;20065;-74
2023/12/15 03:28:49;;;;;;;6.30;4.63;;;;;;;;;;10269036;28;20122;-74
2023/12/15 03:33:52;;;;;;;7.55;4.70;;;;;;;;;;10268025;28;20081;-74
2023/12/15 03:38:57;;;;;;;8.13;5.00;;;;;;;;;;10254275;28;20135;-74
2023/12/15 03:44:00;;;;;;;7.78;5.13;;;;;;;;;;10268176;28;20038;-74
2023/12/15 03:49:03;;;;;;;8.10;5.40;;;;;;;;;;10272548;28;20047;-74
2023/12/15 03:54:08;;;;;;;7.35;4.93;;;;;;;;;;10277128;28;20460;-74
2023/12/15 03:59:11;;;;;;;7.05;5.10;;;;;;;;;;10252766;28;20692;-74
2023/12/15 04:04:14;;;;;;;7.72;4.88;;;;;;;;;;10272747;28;20138;-74
2023/12/15 04:09:19;;;;;;;8.27;5.38;;;;;;;;;;10271231;28;20118;-74
2023/12/15 04:14:22;;;;;;;6.57;4.65;;;;;;;;;;10272273;28;20045;-74
2023/12/15 04:19:26;;;;;;;7.25;4.95;;;;;;;;;;10273353;28;20386;-74
2023/12/15 04:24:30;;;;;;;6.95;4.10;;;;;;;;;;10272935;28;20507;-75
2023/12/15 04:29:34;;;;;;;6.70;4.72;;;;;;;;;;10265845;28;20117;-75
2023/12/15 04:34:37;;;;;;;6.43;4.43;;;;;;;;;;10270449;28;20043;-74
2023/12/15 04:39:43;;;;;;;5.72;4.55;;;;;;;;;;10269322;28;20105;-74
2023/12/15 04:44:46;;;;;;;;;;;;;;;;;;10271964;28;20389;-74
2023/12/15 04:49:50;;;;;;;5.20;3.78;;;;;;;;;;10282856;28;19929;-75
2023/12/15 04:54:54;;;;;;;5.53;4.00;;;;;;;;;;10267954;28;20051;-75
2023/12/15 04:59:58;;;;;;;6.57;4.40;;;;;;;;;;10286934;28;20051;-75
2023/12/15 05:05:01;;;;;;;6.90;4.55;;;;;;;;;;10283359;28;20047;-75
2023/12/15 05:10:08;;;;;;;6.70;4.10;;;;;;;;;;10280612;28;20057;-75
2023/12/15 05:15:11;;;;;;;5.70;3.80;;;;;;;;;;10296144;28;20055;-75
2023/12/15 05:20:14;;;;;;;5.68;3.88;;;;;;;;;;10275864;28;20043;-75
2023/12/15 05:25:19;;;;;;;7.07;4.20;;;;;;;;;;10279957;28;20069;-74
2023/12/15 05:30:23;;;;;;;5.70;4.15;;;;;;;;;;10278214;28;20070;-75
2023/12/15 05:35:26;;;;;;;6.15;4.40;;;;;;;;;;10278470;28;20082;-75
2023/12/15 05:40:31;;;;;;;7.47;4.70;;;;;;;;;;10282208;28;20054;-74
2023/12/15 05:45:34;;;;;;;8.32;5.05;;;;;;;;;;10277244;28;20042;-74
2023/12/15 05:50:37;;;;;;;6.13;4.28;;;;;;;;;;10277280;28;20039;-74
2023/12/15 05:55:42;;;;;;;5.53;4.15;;;;;;;;;;10330239;23;20077;-75
2023/12/15 06:00:45;;;;;;;6.07;4.13;;;;;;;;;;10335862;28;20119;-75
2023/12/15 06:05:48;;;;;;;5.25;3.65;;;;;;;;;;10334869;28;20048;-75
2023/12/15 06:10:53;;;;;;;5.35;3.83;;;;;;;;;;10328102;28;20046;-75
2023/12/15 06:15:57;;;;;;;6.32;4.38;;;;;;;;;;10328568;28;20539;-75
2023/12/15 06:21:00;;;;;;;6.00;4.00;;;;;;;;;;10335643;28;20050;-75
2023/12/15 06:26:05;;;;;;;8.07;4.57;;;;;;;;;;10329456;28;20120;-74
2023/12/15 06:31:08;;;;;;;7.03;3.95;;;;;;;;;;10333731;28;20681;-72
2023/12/15 06:36:12;;;;;;;6.22;4.72;;;;;;;;;;10323118;28;20038;-73
2023/12/15 06:41:17;;;;;;;7.40;5.10;;;;;;;;;;10331993;28;20144;-73
2023/12/15 06:46:20;;;;;;;7.40;5.07;;;;;;;;;;10328011;28;20056;-73
2023/12/15 06:51:23;;;;;;;5.88;4.13;;;;;;;;;;10332649;28;20574;-73
2023/12/15 06:56:28;;;;;;;5.50;3.90;;;;;;;;;;10333680;28;20407;-75
2023/12/15 07:01:31;;;;;;;4.82;3.70;;;;;;;;;;10330700;28;20042;-75
2023/12/15 07:06:35;;;;;;;8.20;4.22;;;;;;;;;;10327911;28;20041;-74
2023/12/15 07:11:40;;;;;;;6.65;4.78;;;;;;;;;;10331766;28;20085;-73
2023/12/15 07:16:43;;;;;;;6.93;5.22;;;;;;;;;;10324208;28;20429;-73
2023/12/15 07:21:46;;;;;;;7.78;5.47;;;;;;;;;;10322600;28;20034;-73
2023/12/15 07:26:51;;;;;;;7.40;4.97;;;;;;;;;;10321460;28;20046;-75
2023/12/15 07:31:54;;;;;;;7.18;4.32;;;;;;;;;;10321886;28;20073;-73
2023/12/15 07:36:58;;;;;;;8.30;5.03;;;;;;;;;;10323436;28;20062;-73
2023/12/15 07:42:02;;;;;;;8.63;4.90;;;;;;;;;;10336438;28;20132;-74
2023/12/15 07:47:06;;;;;;;11.18;6.22;;;;;;;;;;10334280;28;20046;-73
2023/12/15 07:52:09;;;;;;;7.28;5.22;;;;;;;;;;10340728;28;20442;-73
2023/12/15 07:57:15;;;;;;;7.55;4.63;;;;;;;;;;10326501;28;20053;-73
2023/12/15 08:02:20;;;;;;;;;;;;;;;;;;10332246;28;20117;-73
2023/12/15 08:07:23;;;;;;;6.30;4.28;;;;;;;;;;10339599;28;20412;-73
2023/12/15 08:12:27;;;;;;;4.90;4.20;;;;;;;;;;10333522;28;20042;-73
2023/12/15 08:17:31;;;;;;;5.03;3.60;;;;;;;;;;10330118;28;20125;-73
2023/12/15 08:22:34;;;;;;;5.82;4.15;;;;;;;;;;10331416;28;20578;-75
2023/12/15 08:27:40;;;;;;;5.32;4.00;;;;;;;;;;10327469;28;20407;-75
2023/12/15 08:32:43;;;;;;;5.57;4.32;;;;;;;;;;10332018;28;20035;-73
2023/12/15 08:37:47;;;;;;;5.68;3.80;;;;;;;;;;10333071;28;20069;-73
2023/12/15 08:42:51;;;;;;;5.68;3.75;;;;;;;;;;10338006;28;20080;-73
2023/12/15 08:47:55;;;;;;;6.68;4.07;;;;;;;;;;10333067;28;20046;-73
2023/12/15 08:52:58;;;;;;;6.40;4.32;;;;;;;;;;10331581;28;20043;-75
2023/12/15 08:58:03;;;;;;;6.22;4.07;;;;;;;;;;10320235;28;20464;-73
2023/12/15 09:03:07;;;;;;;5.28;4.10;;;;;;;;;;10332334;28;20046;-73
2023/12/15 09:08:11;;;;;;;5.72;3.80;;;;;;;;;;10327252;28;21744;-73
2023/12/15 09:13:15;;;;;;;5.07;3.47;;;;;;;;;;10323775;28;20054;-75
2023/12/15 09:18:19;;;;;;;4.65;3.60;;;;;;;;;;10327180;28;20432;-73
2023/12/15 09:23:22;;;;;;;5.78;3.70;;;;;;;;;;10325230;28;20703;-73
2023/12/15 09:28:27;;;;;;;4.78;3.13;;;;;;;;;;10326716;28;20057;-73
2023/12/15 09:33:30;;;;;;;3.90;3.38;;;;;;;;;;10337979;28;20445;-75
2023/12/15 09:38:33;;;;;;;4.03;3.08;;;;;;;;;;10329981;28;20484;-73
2023/12/15 09:43:37;;;;;;;4.25;3.20;;;;;;;;;;10332007;28;20602;-73
2023/12/15 09:48:41;;;;;;;4.70;3.50;;;;;;;;;;10334382;28;20040;-75
2023/12/15 09:53:48;;;;;;;4.90;3.40;;;;;;;;;;10330724;28;20719;-75
2023/12/15 09:58:53;;;;;;;5.03;3.22;;;;;;;;;;10337388;28;20458;-73
2023/12/15 10:03:57;;;;;;;4.22;3.00;;;;;;;;;;10325728;28;20046;-73
2023/12/15 10:09:00;;;;;;;3.88;2.67;;;;;;;;;;10324660;28;20570;-73
2023/12/15 10:14:07;;;;;;;3.63;2.28;;;;;;;;;;10322496;28;20076;-73
2023/12/15 10:19:10;;;;;;;3.72;2.53;;;;;;;;;;10320804;28;20495;-74
2023/12/15 10:24:21;;;;;;;4.63;3.15;;;;;;;;;;10331910;28;20069;-73
2023/12/15 10:29:26;;;;;;;3.60;2.58;;;;;;;;;;10329327;28;20053;-74
2023/12/15 10:34:29;;;;;;;3.65;2.38;;;;;;;;;;10325275;28;20486;-73
2023/12/15 10:39:33;;;;;;;3.90;2.92;;;;;;;;;;10325454;28;20057;-73
2023/12/15 10:44:38;;;;;;;3.30;2.42;;;;;;;;;;10324975;28;20058;-75
2023/12/15 10:49:43;;;;;;;2.37;2.07;;;;;;;;;;10322267;28;20042;-73
2023/12/15 10:54:48;;;;;;;4.63;2.90;;;;;;;;;;10324255;28;20084;-73
2023/12/15 10:59:54;;;;;;;3.85;3.38;;;;;;;;;;10326995;28;20061;-73
2023/12/15 11:04:57;;;;;;;5.97;3.67;;;;;;;;;;10328482;28;20042;-73
2023/12/15 11:10:03;;;;;;;6.00;3.38;;;;;;;;;;10319947;28;20300;-73
2023/12/15 11:15:10;;;;;;;3.72;3.00;;;;;;;;;;10322840;28;20065;-73
2023/12/15 11:20:41;;;;;;;3.83;2.50;;;;;;;;;;10321063;28;20050;-73
2023/12/15 11:25:58;;;;;;;3.75;2.70;;;;;;;;;;10321568;28;20457;-73
2023/12/15 11:31:22;;;;;;;4.18;2.83;;;;;;;;;;10325179;28;20050;-73
2023/12/15 11:36:29;;;;;;;5.43;2.92;;;;;;;;;;10319601;28;20567;-75
2023/12/15 11:41:32;;;;;;;8.73;4.43;;;;;;;;;;10323902;28;20106;-73
2023/12/15 11:46:36;;;;;;;8.65;6.30;;;;;;;;;;10319901;28;20043;-73
2023/12/15 11:51:41;;;;;;;13.18;8.95;;;;;;;;;;10320252;28;20569;-73
2023/12/15 11:56:44;;;;;;;8.90;6.63;;;;;;;;;;10360893;23;20053;-74
2023/12/15 12:01:48;;;;;;;9.75;7.18;;;;;;;;;;10342881;28;20077;-74
2023/12/15 12:06:53;;;;;;;7.70;5.72;;;;;;;;;;10361971;28;20116;-74
2023/12/15 12:11:57;;;;;;;7.30;5.07;;;;;;;;;;10361312;28;20046;-74
2023/12/15 12:17:00;;;;;;;8.15;4.18;;;;;;;;;;10355818;28;20041;-74
2023/12/15 12:22:09;;;;;;;5.07;3.80;;;;;;;;;;10358818;28;20073;-74
2023/12/15 12:27:12;;;;;;;6.43;4.40;;;;;;;;;;10341902;28;20140;-74
2023/12/15 12:32:15;;;;;;;5.75;4.05;;;;;;;;;;10356992;28;20042;-75
2023/12/15 12:37:20;;;;;;;6.72;4.43;;;;;;;;;;10360801;28;20066;-74
2023/12/15 12:42:24;;;;;;;7.13;5.30;;;;;;;;;;10363944;28;20034;-74
2023/12/15 12:47:27;;;;;;;8.40;6.05;;;;;;;;;;10358348;28;20125;-74
2023/12/15 12:52:33;;;;;;;6.80;5.07;;;;;;;;;;10342064;28;20058;-74
2023/12/15 12:57:36;;;;;;;4.40;3.47;;;;;;;;;;10360285;28;20120;-74
2023/12/15 13:02:42;;;;;;;5.75;4.07;;;;;;;;;;10366181;28;20057;-75
2023/12/15 13:07:46;;;;;;;10.00;5.93;;;;;;;;;;10367124;28;20046;-74
2023/12/15 13:12:54;;;;;;;7.28;5.88;;;;;;;;;;10362938;28;20038;-74
2023/12/15 13:17:59;;;;;;;6.28;4.53;;;;;;;;;;10360092;28;20462;-74
2023/12/15 13:23:04;;;;;;;8.93;5.72;;;;;;;;;;10359446;28;20042;-74
2023/12/15 13:28:09;;;;;;;8.02;5.15;;;;;;;;;;10364927;28;20447;-74
2023/12/15 13:33:15;;;;;;;4.82;3.53;;;;;;;;;;10360495;28;20044;-74
2023/12/15 13:38:20;;;;;;;6.30;4.00;;;;;;;;;;10368682;28;20054;-74
2023/12/15 13:43:24;;;;;;;8.68;4.18;;;;;;;;;;10367011;28;20112;-74
2023/12/15 13:48:27;;;;;;;5.40;3.83;;;;;;;;;;10362109;28;20053;-74
2023/12/15 13:53:32;;;;;;;5.00;3.60;;;;;;;;;;10362362;28;20125;-74
2023/12/15 13:58:35;;;;;;;3.42;2.90;;;;;;;;;;10358183;28;20149;-74
2023/12/15 14:03:39;;;;;;;6.20;4.75;;;;;;;;;;10364294;28;20538;-74
2023/12/15 14:08:43;;;;;;;6.35;4.75;;;;;;;;;;10363227;28;20546;-74
2023/12/15 14:13:47;;;;;;;4.93;3.70;;;;;;;;;;10359741;28;20134;-74
2023/12/15 14:18:50;;;;;;;5.00;3.15;;;;;;;;;;10355249;28;20145;-74
2023/12/15 14:23:55;;;;;;;4.97;2.75;;;;;;;;;;10361467;28;20034;-74
2023/12/15 14:28:58;;;;;;;3.72;2.72;;;;;;;;;;10357792;28;20057;-74
2023/12/15 14:34:01;;;;;;;3.75;2.20;;;;;;;;;;10356693;28;20487;-74
2023/12/15 14:39:06;;;;;;;6.78;2.47;;;;;;;;;;10361087;28;20062;-74
2023/12/15 14:44:09;;;;;;;3.25;2.50;;;;;;;;;;10367535;28;20521;-74
2023/12/15 14:49:13;;;;;;;4.15;2.65;;;;;;;;;;10365194;28;20048;-74
2023/12/15 14:54:17;;;;;;;3.05;2.20;;;;;;;;;;10364631;28;20153;-74
2023/12/15 14:59:24;;;;;;;2.92;2.17;;;;;;;;;;10368733;28;20136;-74
2023/12/15 15:04:28;;;;;;;3.72;2.53;;;;;;;;;;10368206;28;20108;-74
2023/12/15 15:09:32;;;;;;;3.25;2.67;;;;;;;;;;10357618;28;20064;-74
2023/12/15 15:14:39;;;;;;;4.75;3.30;;;;;;;;;;10365895;28;20026;-74
2023/12/15 15:19:42;;;;;;;4.15;3.13;;;;;;;;;;10355595;28;20125;-74
2023/12/15 15:24:47;;;;;;;5.38;2.88;;;;;;;;;;10353158;28;20034;-74
2023/12/15 15:29:50;;;;;;;5.20;3.42;;;;;;;;;;10351082;28;20041;-74
2023/12/15 15:34:53;;;;;;;4.68;3.00;;;;;;;;;;10352789;28;20503;-74
2023/12/15 15:39:58;;;;;;;4.65;3.28;;;;;;;;;;10359128;28;20075;-74
2023/12/15 15:45:02;;;;;;;8.18;4.57;;;;;;;;;;10353518;28;20514;-74
2023/12/15 15:50:08;;;;;;;8.77;4.85;;;;;;;;;;10348646;28;20052;-74
2023/12/15 15:55:16;;;;;;;6.80;4.50;;;;;;;;;;10351382;28;20042;-74
2023/12/15 16:00:20;;;;;;;7.35;4.10;;;;;;;;;;10343808;28;20046;-74
2023/12/15 16:05:25;;;;;;;7.00;4.25;;;;;;;;;;10350874;28;20129;-74
2023/12/15 16:10:29;;;;;;;7.13;5.05;;;;;;;;;;10351368;28;20045;-74
2023/12/15 16:15:33;;;;;;;8.18;4.70;;;;;;;;;;10348876;28;20052;-74
2023/12/15 16:20:36;;;;;;;6.93;4.55;;;;;;;;;;10368926;28;20044;-74
2023/12/15 16:25:41;;;;;;;6.60;4.97;;;;;;;;;;10371938;28;20041;-74
2023/12/15 16:30:45;;;;;;;8.68;5.47;;;;;;;;;;10371935;28;20103;-74
2023/12/15 16:35:48;;;;;;;8.80;5.60;;;;;;;;;;10373291;28;20038;-73
2023/12/15 16:40:53;;;;;;;10.88;6.35;;;;;;;;;;10371012;28;20803;-74
2023/12/15 16:45:56;;;;;;;10.30;6.28;;;;;;;;;;10371532;28;20052;-75
2023/12/15 16:50:59;;;;;;;10.18;6.22;;;;;;;;;;10366049;28;20069;-74
2023/12/15 16:56:04;;;;;;;9.48;5.90;;;;;;;;;;10371948;28;20114;-74
2023/12/15 17:01:07;;;;;;;13.18;5.80;;;;;;;;;;10366437;28;20034;-74
2023/12/15 17:06:12;;;;;;;9.00;5.90;;;;;;;;;;10364651;28;20433;-74
2023/12/15 17:11:18;;;;;;;6.97;4.93;;;;;;;;;;10348977;28;20100;-74
2023/12/15 17:16:21;;;;;;;8.73;5.38;;;;;;;;;;10370125;28;20510;-74
2023/12/15 17:21:25;;;;;;;7.15;4.93;;;;;;;;;;10370174;28;20034;-74
2023/12/15 17:26:29;;;;;;;6.70;5.13;;;;;;;;;;10370568;28;20036;-75
2023/12/15 17:31:33;;;;;;;8.27;5.00;;;;;;;;;;10377582;28;20478;-74
2023/12/15 17:36:38;;;;;;;9.45;5.15;;;;;;;;;;10375547;28;20065;-74
2023/12/15 17:41:43;;;;;;;8.53;5.57;;;;;;;;;;10371060;28;20140;-74
2023/12/15 17:46:46;;;;;;;8.50;5.78;;;;;;;;;;10368605;28;20502;-74
2023/12/15 17:51:49;;;;;;;6.88;4.60;;;;;;;;;;10364158;28;20510;-74
2023/12/15 17:56:54;;;;;;;6.57;4.75;;;;;;;;;;10378051;23;20134;-74
2023/12/15 18:01:59;;;;;;;6.10;4.18;;;;;;;;;;10376731;28;20066;-74
2023/12/15 18:07:03;;;;;;;7.90;5.10;;;;;;;;;;10363746;28;20100;-74
2023/12/15 18:12:09;;;;;;;8.57;5.10;;;;;;;;;;10364726;28;20285;-74
2023/12/15 18:17:12;;;;;;;11.85;6.00;;;;;;;;;;10362796;28;20040;-74
2023/12/15 18:22:15;;;;;;;10.75;6.45;;;;;;;;;;10364549;28;20049;-74
2023/12/15 18:27:20;;;;;;;11.95;6.38;;;;;;;;;;10366763;28;20123;-74
2023/12/15 18:32:23;;;;;;;9.85;5.85;;;;;;;;;;10363425;28;20041;-74
2023/12/15 18:37:27;;;;;;;10.98;6.32;;;;;;;;;;10336986;28;20049;-74
2023/12/15 18:42:31;;;;;;;7.97;5.53;;;;;;;;;;10356196;28;20034;-74
2023/12/15 18:47:35;;;;;;;10.13;6.07;;;;;;;;;;10363315;28;20040;-74
2023/12/15 18:52:39;;;;;;;8.93;5.88;;;;;;;;;;10363425;28;20499;-74
2023/12/15 18:57:43;;;;;;;9.93;6.10;;;;;;;;;;10362722;28;20037;-74
2023/12/15 19:02:48;;;;;;;;;;;;;;;;;;10361289;28;20495;-74
2023/12/15 19:07:52;;;;;;;15.38;7.78;;;;;;;;;;10355643;28;20383;-74
2023/12/15 19:12:56;;;;;;;14.25;8.68;;;;;;;;;;10359141;28;20144;-73
2023/12/15 19:18:00;;;;;;;13.00;8.10;;;;;;;;;;10360366;28;20129;-74
2023/12/15 19:23:03;;;;;;;17.25;9.00;;;;;;;;;;10361796;28;20049;-74
2023/12/15 19:28:08;;;;;;;17.48;8.05;;;;;;;;;;10359231;28;20425;-74
2023/12/15 19:33:12;;;;;;;11.18;6.30;;;;;;;;;;10326941;28;20060;-74
2023/12/15 19:38:15;;;;;;;10.60;5.55;;;;;;;;;;10329343;28;20133;-74
2023/12/15 19:43:20;;;;;;;8.20;5.40;;;;;;;;;;10356745;28;20067;-73
2023/12/15 19:48:23;;;;;;;11.55;5.53;;;;;;;;;;10363952;28;20069;-73
2023/12/15 19:53:28;;;;;;;9.30;5.88;;;;;;;;;;10362074;28;20054;-74
2023/12/15 19:58:33;;;;;;;7.82;5.18;;;;;;;;;;10361477;28;20030;-74
2023/12/15 20:03:37;;;;;;;7.32;5.13;;;;;;;;;;10360991;28;20105;-73
2023/12/15 20:08:41;;;;;;;10.35;5.90;;;;;;;;;;10355356;28;20080;-74
2023/12/15 20:13:47;;;;;;;7.68;5.20;;;;;;;;;;10362625;28;20052;-74
2023/12/15 20:18:51;;;;;;;7.05;4.55;;;;;;;;;;10362668;28;20548;-74
2023/12/15 20:23:54;;;;;;;5.07;4.22;;;;;;;;;;10354525;28;20050;-74
2023/12/15 20:29:00;;;;;;;9.48;5.65;;;;;;;;;;10349515;28;20042;-74
2023/12/15 20:34:03;;;;;;;10.05;5.80;;;;;;;;;;10365828;28;20052;-74
2023/12/15 20:39:07;;;;;;;6.93;4.80;;;;;;;;;;10362282;28;20503;-73
2023/12/15 20:44:12;;;;;;;7.60;4.10;;;;;;;;;;10355665;28;20038;-74
2023/12/15 20:49:15;;;;;;;4.63;3.50;;;;;;;;;;10367361;28;20041;-73
2023/12/15 20:54:19;;;;;;;6.78;4.38;;;;;;;;;;10368114;28;20527;-74
2023/12/15 20:59:23;;;;;;;7.60;5.00;;;;;;;;;;10360638;28;20406;-73
2023/12/15 21:04:27;;;;;;;11.02;6.07;;;;;;;;;;10364224;28;20053;-73
2023/12/15 21:09:30;;;;;;;10.43;5.65;;;;;;;;;;10368717;28;20621;-74
2023/12/15 21:14:35;;;;;;;8.48;5.50;;;;;;;;;;10364012;28;20060;-74
2023/12/15 21:19:38;;;;;;;8.50;4.95;;;;;;;;;;10367499;28;20056;-74
2023/12/15 21:24:42;;;;;;;8.70;5.18;;;;;;;;;;10367636;28;20442;-74
2023/12/15 21:29:46;;;;;;;9.07;5.20;;;;;;;;;;10364103;28;20037;-74
2023/12/15 21:34:50;;;;;;;8.25;4.47;;;;;;;;;;10368778;28;20041;-74
2023/12/15 21:39:53;;;;;;;7.68;4.85;;;;;;;;;;10366042;28;20481;-74
2023/12/15 21:44:59;;;;;;;10.32;5.38;;;;;;;;;;10361483;28;20067;-73
2023/12/15 21:50:03;;;;;;;7.13;5.15;;;;;;;;;;10366333;28;20622;-73
2023/12/15 21:55:09;;;;;;;6.72;4.63;;;;;;;;;;10366305;28;20046;-73
2023/12/15 22:00:14;;;;;;;7.30;4.38;;;;;;;;;;10372095;28;20081;-73
2023/12/15 22:05:18;;;;;;;6.90;4.50;;;;;;;;;;10367310;28;20038;-74
2023/12/15 22:10:21;;;;;;;5.88;4.00;;;;;;;;;;10359046;28;20569;-73
2023/12/15 22:15:26;;;;;;;5.88;3.75;;;;;;;;;;10356206;28;20069;-74
2023/12/15 22:20:30;;;;;;;5.68;4.13;;;;;;;;;;10359278;28;20050;-74
2023/12/15 22:25:33;;;;;;;8.95;5.38;;;;;;;;;;10358556;28;20050;-74
2023/12/15 22:30:38;;;;;;;7.38;4.55;;;;;;;;;;10362629;28;20112;-74
2023/12/15 22:35:42;;;;;;;5.28;3.30;;;;;;;;;;10354933;28;20052;-74
2023/12/15 22:40:45;;;;;;;6.75;3.20;;;;;;;;;;10357542;28;20053;-73
2023/12/15 22:45:50;;;;;;;4.00;3.17;;;;;;;;;;10350576;28;20419;-73
2023/12/15 22:50:53;;;;;;;4.38;3.05;;;;;;;;;;10356830;28;20050;-73
2023/12/15 22:55:56;;;;;;;6.70;3.42;;;;;;;;;;10355911;28;20554;-74
2023/12/15 23:01:01;;;;;;;7.22;3.67;;;;;;;;;;10354059;28;20245;-74
2023/12/15 23:06:05;;;;;;;7.18;4.28;;;;;;;;;;10359779;28;20101;-73
2023/12/15 23:11:08;;;;;;;8.00;3.85;;;;;;;;;;10354906;28;20143;-74
2023/12/15 23:16:13;;;;;;;4.15;3.03;;;;;;;;;;10355534;28;20046;-74
2023/12/15 23:21:17;;;;;;;6.22;3.17;;;;;;;;;;10354489;28;20045;-74
2023/12/15 23:26:21;;;;;;;5.45;3.42;;;;;;;;;;10349418;28;20131;-73
2023/12/15 23:31:26;;;;;;;6.47;3.20;;;;;;;;;;10354846;28;20034;-74
2023/12/15 23:36:30;;;;;;;5.60;2.75;;;;;;;;;;10360092;28;20041;-73
2023/12/15 23:41:33;;;;;;;2.95;2.05;;;;;;;;;;10353716;28;20042;-73
2023/12/15 23:46:38;;;;;;;7.15;3.10;;;;;;;;;;10358416;28;20407;-74
2023/12/15 23:51:41;;;;;;;5.60;2.50;;;;;;;;;;10359432;28;20049;-73
2023/12/15 23:56:46;;;;;;;4.80;2.58;;;;;;;;;;10361380;28;20042;-74
